OERK/RUH METAR and TAF weather

Enter ICAO airport designator
Station Type Date Time Source
OERK METAR 2019/02/16 07:00 UTC NOAA

OERK 160700Z 33010KT 9999 SCT040 BKN080 20/12 Q1018 NOSIG


Station Type Date Time Source
OERK Decoded METAR 2019/02/16 07:00 UTC NOAA

King Khaled International Airport, Saudi Arabia (OERK) 24-56N 046-43E 612M
Feb 16, 2019 - 02:00 AM EST / 2019.02.16 0700 UTC
Wind: from the NNW (330 degrees) at 12 MPH (10 KT):0
Visibility: greater than 7 mile(s):0
Sky conditions: mostly cloudy
Temperature: 68 F (20 C)
Dew Point: 53 F (12 C)
Relative Humidity: 59%
Pressure (altimeter): 30.06 in. Hg (1018 hPa)
ob: OERK 160700Z 33010KT 9999 SCT040 BKN080 20/12 Q1018 NOSIG
cycle: 7

Station Type Date Time Source
OERK TAF 2019/02/16 06:03 UTC NOAA

TAF OERK 160500Z 1606/1712 31015KT 8000 SCT040
TEMPO 1606/1608 FEW035CB
BECMG 1618/1620 03010KT


Example: see airport list